Melbourne, Australia

7:13 PM AEDT on December 04, 2016 (GMT +1100)
Location 8: Bourke/Russell Street - GWTS | | Change Station

Elev 98 ft 37.81 °S, 144.97 °E | Updated 55 minutes ago

Overcast
Overcast
84.6 °F
Feels Like 84 °F
N
0.0
Wind Variable Wind from ENE
Gusts 0.0 mph

Today
High -- | Low -- °F
--% Chance of Precip.
Yesterday
High -- | Low -- °F
Precip. -- in
Pressure 29.74 in
Visibility 6.2 miles
Clouds
Heat Index 84 °F
Dew Point 57 °F
Humidity 39%
Rainfall in
Snow Depth Not available.
5:51 AM 8:29 PM
Waxing Crescent, 21% visible
METAR YMML 040800Z 04007KT 9999 -RA NSC 22/17 Q1007 FM0800 35015G25KT 9999 -SHRA SCT080 BKN110 FM0800 MOD TURB BLW 5000FT
Pressure 29.74 in
Visibility 6.2 miles
Clouds
Heat Index 84 °F
Dew Point 57 °F
Humidity 39%
Rainfall in
Snow Depth Not available.
5:51 AM 8:29 PM
Waxing Crescent, 21% visible
METAR YMML 040800Z 04007KT 9999 -RA NSC 22/17 Q1007 FM0800 35015G25KT 9999 -SHRA SCT080 BKN110 FM0800 MOD TURB BLW 5000FT

10-Day Weather Forecast

×

Almanac

Astronomy

Dec. 04, 2016 Rise Set
Actual Time
Civil Twilight
Nautical Twilight
Astronomical Twilight
Moon
Length of Visible Light
Length of Day
Tomorrow will be .
, % of the Moon is Illuminated

Today's Extremes

Country Highs Country Lows

Community

WunderPhotos

Upload Photos

1,955,587 photos uploaded!

WunderBlog® & News

Nearby

Air Quality

  Air Quality AQ Index Pollutant
Not available.

Snow Depth

Station Depth Elevation

Earthquake Activity

City Distance Mag. Time & Date
Minimum magnitude displayed is 2.5.

Coastal Water Temperatures

Place Temperature

Stations

Nearby Weather Stations

Station Location Temp. Windchill Dew Point Humidity Wind Precip. Elev Updated Type